createdAt,value
2019-02-27T00:00:32.704Z,57.00
2019-02-27T00:03:01.249Z,57.70
2019-02-27T00:05:30.945Z,66.33
2019-02-27T00:07:59.477Z,55.80
2019-02-27T00:10:28.085Z,60.27
2019-02-27T00:12:56.626Z,60.80
2019-02-27T00:15:25.433Z,61.90
2019-02-27T00:17:53.975Z,61.57
2019-02-27T00:20:22.521Z,67.83
2019-02-27T00:22:51.658Z,148.70
2019-02-27T00:25:20.260Z,221.43
2019-02-27T00:27:49.164Z,200.30
2019-02-27T00:30:18.463Z,211.83
2019-02-27T00:32:50.969Z,272.00
2019-02-27T00:35:17.370Z,372.90
2019-02-27T00:37:46.007Z,304.77
2019-02-27T00:40:14.758Z,417.33
2019-02-27T00:42:43.313Z,505.57
2019-02-27T00:45:12.106Z,512.80
2019-02-27T00:47:40.684Z,402.93
2019-02-27T00:50:10.013Z,464.07
2019-02-27T00:52:38.635Z,572.70
2019-02-27T00:55:08.366Z,513.80
2019-02-27T00:57:36.922Z,446.60
2019-02-27T01:00:16.561Z,416.63
2019-02-27T01:02:45.184Z,398.30
2019-02-27T01:05:13.873Z,378.53
2019-02-27T01:07:42.455Z,361.70
2019-02-27T01:10:12.994Z,401.50
2019-02-27T01:12:41.707Z,430.53
2019-02-27T01:15:14.849Z,518.53
2019-02-27T01:17:43.561Z,443.87
2019-02-27T01:20:13.891Z,431.63
2019-02-27T01:22:43.340Z,393.03
2019-02-27T01:25:11.966Z,340.43
2019-02-27T01:27:41.871Z,390.53
2019-02-27T01:30:17.678Z,404.63
2019-02-27T01:32:46.301Z,378.90
2019-02-27T01:35:17.658Z,362.07
2019-02-27T01:37:45.177Z,393.23
2019-02-27T01:40:17.936Z,392.13
2019-02-27T01:42:47.224Z,433.27
2019-02-27T01:45:20.669Z,361.40
2019-02-27T01:47:46.626Z,345.87
2019-02-27T01:50:29.583Z,275.63
2019-02-27T01:52:58.271Z,235.73
2019-02-27T01:55:26.884Z,222.90
2019-02-27T01:57:55.393Z,207.43
2019-02-27T02:00:24.094Z,280.87
2019-02-27T02:02:52.775Z,525.97
2019-02-27T02:05:26.129Z,460.70
2019-02-27T02:07:51.839Z,426.30
2019-02-27T02:10:20.529Z,422.00
2019-02-27T02:12:52.117Z,496.17
2019-02-27T02:15:58.158Z,419.90
2019-02-27T02:18:55.239Z,425.97
2019-02-27T02:21:38.593Z,374.97
2019-02-27T02:24:28.325Z,308.50
2019-02-27T02:26:59.877Z,330.03
2019-02-27T02:29:56.849Z,406.93
2019-02-27T02:33:02.754Z,451.30
2019-02-27T02:35:43.271Z,462.97
2019-02-27T02:38:30.125Z,441.37
2019-02-27T02:41:16.403Z,384.50
2019-02-27T02:43:56.917Z,327.93
2019-02-27T02:46:34.219Z,285.23
2019-02-27T02:49:28.080Z,229.37
2019-02-27T02:52:08.411Z,232.93
2019-02-27T02:54:56.218Z,201.07
2019-02-27T02:57:42.809Z,187.67
2019-02-27T03:00:37.864Z,170.10
2019-02-27T03:03:17.394Z,172.43
2019-02-27T03:05:58.520Z,177.57
2019-02-27T03:08:27.800Z,189.80
2019-02-27T03:10:59.441Z,183.50
2019-02-27T03:13:57.794Z,294.30
2019-02-27T03:16:29.417Z,287.37
2019-02-27T03:19:09.835Z,241.03
2019-02-27T03:21:41.470Z,251.40
2019-02-27T03:24:27.960Z,235.40
2019-02-27T03:27:04.198Z,228.80
2019-02-27T03:29:44.722Z,219.13
2019-02-27T03:32:22.130Z,217.90
2019-02-27T03:34:53.806Z,221.57
2019-02-27T03:37:37.435Z,219.77
2019-02-27T03:40:14.906Z,195.87
2019-02-27T03:42:52.365Z,210.77
2019-02-27T03:45:42.292Z,233.23
2019-02-27T03:48:19.602Z,240.47
2019-02-27T03:51:13.414Z,307.00
2019-02-27T03:53:50.601Z,273.53
2019-02-27T03:56:28.374Z,254.37
2019-02-27T03:59:19.322Z,262.77
2019-02-27T04:02:07.142Z,250.77
2019-02-27T04:04:38.702Z,248.80
2019-02-27T04:07:35.808Z,252.50
2019-02-27T04:10:04.730Z,415.43
2019-02-27T04:12:33.286Z,374.57
2019-02-27T04:15:02.014Z,305.13
2019-02-27T04:17:29.493Z,331.37
2019-02-27T04:19:58.414Z,297.27
2019-02-27T04:22:26.997Z,277.47
2019-02-27T04:24:56.879Z,258.50
2019-02-27T04:27:25.820Z,230.00
2019-02-27T04:29:54.496Z,227.60
2019-02-27T04:32:23.119Z,205.07
2019-02-27T04:34:51.751Z,211.07
2019-02-27T04:37:20.965Z,190.23
2019-02-27T04:39:49.577Z,173.00
2019-02-27T04:42:18.164Z,169.23
2019-02-27T04:44:46.716Z,157.63
2019-02-27T04:47:15.189Z,152.80
2019-02-27T04:49:43.734Z,168.33
2019-02-27T04:52:12.213Z,184.00
2019-02-27T04:54:41.544Z,175.40
2019-02-27T04:57:10.797Z,184.67
2019-02-27T04:59:39.269Z,202.10
2019-02-27T05:02:07.824Z,199.93
2019-02-27T05:04:36.465Z,240.87
2019-02-27T05:07:05.013Z,231.87
2019-02-27T05:09:34.015Z,218.30
2019-02-27T05:12:03.358Z,205.30
2019-02-27T05:14:31.974Z,250.47
2019-02-27T05:17:00.529Z,250.67
2019-02-27T05:19:30.591Z,255.40
2019-02-27T05:22:01.233Z,272.70
2019-02-27T05:24:29.663Z,249.33
2019-02-27T05:27:00.876Z,234.60
2019-02-27T05:29:28.525Z,245.33
2019-02-27T05:31:57.073Z,244.83
2019-02-27T05:34:25.619Z,326.90
2019-02-27T05:36:54.153Z,329.53
2019-02-27T05:39:22.703Z,285.07
2019-02-27T05:41:51.216Z,263.80
2019-02-27T05:44:22.157Z,246.13
2019-02-27T05:46:49.889Z,236.10
2019-02-27T05:49:18.398Z,238.73
2019-02-27T05:51:46.962Z,241.90
2019-02-27T05:54:15.505Z,256.87
2019-02-27T05:56:44.159Z,235.03
2019-02-27T05:59:12.772Z,235.90
2019-02-27T06:01:41.253Z,211.77
2019-02-27T06:04:09.828Z,204.40
2019-02-27T06:06:38.307Z,187.43
2019-02-27T06:09:09.981Z,187.83
2019-02-27T06:11:37.351Z,163.23
2019-02-27T06:14:05.818Z,160.30
2019-02-27T06:16:37.096Z,184.40
2019-02-27T06:19:04.528Z,181.30
2019-02-27T06:21:33.092Z,203.00
2019-02-27T06:24:01.634Z,246.73
2019-02-27T06:26:32.484Z,230.20
2019-02-27T06:29:00.421Z,286.43
2019-02-27T06:31:28.902Z,299.53
2019-02-27T06:33:59.027Z,320.00
2019-02-27T06:36:27.645Z,331.50
2019-02-27T06:39:00.084Z,323.73
2019-02-27T06:41:26.490Z,324.40
2019-02-27T06:43:55.041Z,316.10
2019-02-27T06:46:23.517Z,329.40
2019-02-27T06:48:52.081Z,328.97
2019-02-27T06:51:20.561Z,344.93
2019-02-27T06:53:49.114Z,332.67
2019-02-27T06:56:17.649Z,342.23
2019-02-27T06:58:47.540Z,319.53
2019-02-27T07:01:16.371Z,303.97
2019-02-27T07:03:44.953Z,288.57
2019-02-27T07:06:13.572Z,283.47
2019-02-27T07:08:43.677Z,270.63
2019-02-27T07:11:12.209Z,254.10
2019-02-27T07:13:40.754Z,235.00
2019-02-27T07:16:09.364Z,237.23
2019-02-27T07:18:41.484Z,205.87
2019-02-27T07:21:08.340Z,184.97
2019-02-27T07:23:36.881Z,191.10
2019-02-27T07:26:05.630Z,169.40
2019-02-27T07:28:34.173Z,146.27
2019-02-27T07:31:02.718Z,137.93
2019-02-27T07:33:31.465Z,129.40
2019-02-27T07:36:03.338Z,121.97
2019-02-27T07:38:30.207Z,101.43
2019-02-27T07:40:58.773Z,98.73
2019-02-27T07:43:27.246Z,92.73
2019-02-27T07:45:55.857Z,91.77
2019-02-27T07:48:24.361Z,81.03
2019-02-27T07:50:52.904Z,84.77
2019-02-27T07:53:21.521Z,80.27
2019-02-27T07:55:50.107Z,72.57
2019-02-27T07:58:18.717Z,82.90
2019-02-27T08:00:49.783Z,73.10
2019-02-27T08:03:17.481Z,67.87
2019-02-27T08:05:45.950Z,63.40
2019-02-27T08:08:14.489Z,72.93
2019-02-27T08:10:42.994Z,65.83
2019-02-27T08:13:11.606Z,63.33
2019-02-27T08:15:40.138Z,64.00
2019-02-27T08:18:08.754Z,65.83
2019-02-27T08:20:37.362Z,68.97
2019-02-27T08:23:06.966Z,69.97
2019-02-27T08:25:35.693Z,70.73
2019-02-27T08:28:05.186Z,76.20
2019-02-27T08:30:33.733Z,71.97
2019-02-27T08:33:02.388Z,67.37
2019-02-27T08:35:30.993Z,76.30
2019-02-27T08:38:02.605Z,78.43
2019-02-27T08:40:30.650Z,78.20
2019-02-27T08:42:59.317Z,87.43
2019-02-27T08:45:27.832Z,94.17
2019-02-27T08:47:56.441Z,98.47
2019-02-27T08:50:25.246Z,93.80
2019-02-27T08:52:53.741Z,96.30
2019-02-27T08:55:23.032Z,96.03
2019-02-27T08:57:55.584Z,84.13
2019-02-27T09:00:25.885Z,90.53
2019-02-27T09:02:55.676Z,97.13
2019-02-27T09:05:24.690Z,98.43
2019-02-27T09:07:53.323Z,95.37
2019-02-27T09:10:25.991Z,91.53
2019-02-27T09:12:53.208Z,87.13
2019-02-27T09:15:21.914Z,91.47
2019-02-27T09:17:50.603Z,94.13
2019-02-27T09:20:22.229Z,91.13
2019-02-27T09:22:50.873Z,99.50
2019-02-27T09:25:23.628Z,108.33
2019-02-27T09:27:49.816Z,109.43
2019-02-27T09:30:28.847Z,106.27
2019-02-27T09:32:56.008Z,103.80
2019-02-27T09:35:24.626Z,107.47
2019-02-27T09:37:53.273Z,125.73
2019-02-27T09:40:25.662Z,102.27
2019-02-27T09:42:54.350Z,101.63
2019-02-27T09:45:36.093Z,103.93
2019-02-27T09:48:05.238Z,92.77
2019-02-27T09:50:47.749Z,108.43
2019-02-27T09:53:15.245Z,101.00
2019-02-27T09:55:43.929Z,101.67
2019-02-27T09:58:12.769Z,106.53
2019-02-27T10:00:46.682Z,121.63
2019-02-27T10:03:19.751Z,105.30
2019-02-27T10:05:45.945Z,100.57
2019-02-27T10:08:14.656Z,102.40
2019-02-27T10:10:45.890Z,108.43
2019-02-27T10:13:13.541Z,109.97
2019-02-27T10:15:42.158Z,112.37
2019-02-27T10:18:10.846Z,113.63
2019-02-27T10:20:39.361Z,110.20
2019-02-27T10:23:07.905Z,105.97
2019-02-27T10:25:36.600Z,113.97
2019-02-27T10:28:05.318Z,109.53
2019-02-27T10:30:33.937Z,113.17
2019-02-27T10:33:03.432Z,112.83
2019-02-27T10:35:32.270Z,110.77
2019-02-27T10:38:00.817Z,99.77
2019-02-27T10:40:29.353Z,109.17
2019-02-27T10:42:58.006Z,106.27
2019-02-27T10:45:26.633Z,108.03
2019-02-27T10:47:56.268Z,112.50
2019-02-27T10:50:24.905Z,111.13
2019-02-27T10:52:53.445Z,102.43
2019-02-27T10:55:22.764Z,113.93
2019-02-27T10:57:51.398Z,100.77
2019-02-27T11:00:31.280Z,96.47
2019-02-27T11:03:00.597Z,107.57
2019-02-27T11:05:31.642Z,107.60
2019-02-27T11:08:00.263Z,111.57
2019-02-27T11:10:29.053Z,103.63
2019-02-27T11:12:57.674Z,112.07
2019-02-27T11:15:26.351Z,108.47
2019-02-27T11:17:55.069Z,111.50
2019-02-27T11:20:24.680Z,106.77
2019-02-27T11:22:53.368Z,105.60
2019-02-27T11:25:24.508Z,103.07
2019-02-27T11:27:53.184Z,108.03
2019-02-27T11:30:37.045Z,103.57
2019-02-27T11:33:05.953Z,99.67
2019-02-27T11:35:34.634Z,102.10
2019-02-27T11:38:03.218Z,97.20
2019-02-27T11:40:31.835Z,105.70
2019-02-27T11:43:01.196Z,105.57
2019-02-27T11:45:29.883Z,99.73
2019-02-27T11:47:58.504Z,102.90
2019-02-27T11:50:27.110Z,101.90
2019-02-27T11:52:55.825Z,97.97
2019-02-27T11:55:24.686Z,93.57
2019-02-27T11:57:53.289Z,101.13
2019-02-27T12:00:34.209Z,95.00
2019-02-27T12:03:02.826Z,96.40
2019-02-27T12:05:34.110Z,99.43
2019-02-27T12:08:01.656Z,96.47
2019-02-27T12:10:31.638Z,104.83
2019-02-27T12:13:01.398Z,103.60
2019-02-27T12:15:31.802Z,98.50
2019-02-27T12:18:01.599Z,102.97
2019-02-27T12:20:30.599Z,106.80
2019-02-27T12:22:59.246Z,113.57
2019-02-27T12:25:29.957Z,102.47
2019-02-27T12:27:58.192Z,107.77
2019-02-27T12:30:28.413Z,105.50
2019-02-27T12:32:57.236Z,101.97
2019-02-27T12:35:27.848Z,105.23
2019-02-27T12:37:56.495Z,105.83
2019-02-27T12:40:25.430Z,103.30
2019-02-27T12:42:54.071Z,100.63
2019-02-27T12:45:25.830Z,109.07
2019-02-27T12:47:55.193Z,107.30
2019-02-27T12:50:26.566Z,107.27
2019-02-27T12:52:55.857Z,104.93
2019-02-27T12:55:24.946Z,104.10
2019-02-27T12:57:53.490Z,102.87
2019-02-27T13:00:27.277Z,105.13
2019-02-27T13:02:56.064Z,100.27
2019-02-27T13:05:27.289Z,102.87
2019-02-27T13:07:55.130Z,105.40
2019-02-27T13:10:24.917Z,105.20
2019-02-27T13:12:53.534Z,118.27
2019-02-27T13:15:29.259Z,115.57
2019-02-27T13:17:58.232Z,114.73
2019-02-27T13:20:31.766Z,105.30
2019-02-27T13:23:03.864Z,112.43
2019-02-27T13:25:30.717Z,108.87
2019-02-27T13:27:59.402Z,104.67
2019-02-27T13:30:28.717Z,110.47
2019-02-27T13:33:00.819Z,106.40
2019-02-27T13:35:28.656Z,109.93
2019-02-27T13:37:59.875Z,106.93
2019-02-27T13:40:34.926Z,101.73
2019-02-27T13:43:01.144Z,104.93
2019-02-27T13:45:31.355Z,106.47
2019-02-27T13:48:04.786Z,109.13
2019-02-27T13:50:30.245Z,107.77
2019-02-27T13:52:58.970Z,110.73
2019-02-27T13:55:27.639Z,105.67
2019-02-27T13:57:58.858Z,102.20
2019-02-27T14:00:31.222Z,108.37
2019-02-27T14:02:59.846Z,114.17
2019-02-27T14:05:29.533Z,103.80
2019-02-27T14:07:58.771Z,103.60
2019-02-27T14:10:29.494Z,108.83
2019-02-27T14:12:58.184Z,101.40
2019-02-27T14:15:28.011Z,98.63
2019-02-27T14:17:56.827Z,98.07
2019-02-27T14:20:26.988Z,98.53
2019-02-27T14:22:55.877Z,95.57
2019-02-27T14:25:31.145Z,98.03
2019-02-27T14:27:57.835Z,102.93
2019-02-27T14:30:29.603Z,100.33
2019-02-27T14:32:58.223Z,105.00
2019-02-27T14:35:26.854Z,103.13
2019-02-27T14:37:55.509Z,103.47
2019-02-27T14:40:24.127Z,106.13
2019-02-27T14:42:55.145Z,97.53
2019-02-27T14:45:25.231Z,106.57
2019-02-27T14:47:53.848Z,101.50
2019-02-27T14:50:23.611Z,103.07
2019-02-27T14:52:52.294Z,104.20
2019-02-27T14:55:21.819Z,100.93
2019-02-27T14:57:51.493Z,99.83
2019-02-27T15:00:21.994Z,97.97
2019-02-27T15:02:52.117Z,101.30
2019-02-27T15:05:20.909Z,99.50
2019-02-27T15:07:49.801Z,97.93
2019-02-27T15:10:22.429Z,92.53
2019-02-27T15:12:55.197Z,89.87
2019-02-27T15:15:24.081Z,83.40
2019-02-27T15:17:52.697Z,83.03
2019-02-27T15:20:23.155Z,69.67
2019-02-27T15:22:52.437Z,54.33
2019-02-27T15:25:22.098Z,43.33
2019-02-27T15:27:51.026Z,47.60
2019-02-27T15:30:24.368Z,44.27
2019-02-27T15:32:53.031Z,46.10
2019-02-27T15:35:22.286Z,44.97
2019-02-27T15:37:51.231Z,39.37
2019-02-27T15:40:22.857Z,41.97
2019-02-27T15:42:51.493Z,41.53
2019-02-27T15:45:22.291Z,43.30
2019-02-27T15:47:50.978Z,40.70
2019-02-27T15:50:24.714Z,42.37
2019-02-27T15:52:53.357Z,41.83
2019-02-27T15:55:21.971Z,40.97
2019-02-27T15:57:53.724Z,39.03
2019-02-27T16:00:22.674Z,35.70
2019-02-27T16:02:51.295Z,34.87
2019-02-27T16:05:20.015Z,40.60
2019-02-27T16:07:49.832Z,39.53
2019-02-27T16:10:23.453Z,34.10
2019-02-27T16:12:52.178Z,30.70
2019-02-27T16:15:22.201Z,31.63
2019-02-27T16:17:50.983Z,28.40
2019-02-27T16:20:24.690Z,39.47
2019-02-27T16:22:53.381Z,55.10
2019-02-27T16:25:26.029Z,57.53
2019-02-27T16:27:54.648Z,66.03
2019-02-27T16:30:33.616Z,70.40
2019-02-27T16:33:02.351Z,77.07
2019-02-27T16:35:31.039Z,80.80
2019-02-27T16:37:59.737Z,89.47
2019-02-27T16:40:29.564Z,82.63
2019-02-27T16:42:58.246Z,90.77
2019-02-27T16:45:32.311Z,85.23
2019-02-27T16:47:59.310Z,89.63
2019-02-27T16:50:28.332Z,77.53
2019-02-27T16:52:57.055Z,70.53
2019-02-27T16:55:27.809Z,62.60
2019-02-27T16:57:57.673Z,71.83
2019-02-27T17:00:30.801Z,80.70
2019-02-27T17:02:59.456Z,91.47
2019-02-27T17:05:28.128Z,89.97
2019-02-27T17:08:00.290Z,78.40
2019-02-27T17:10:32.339Z,86.53
2019-02-27T17:13:01.035Z,84.73
2019-02-27T17:15:34.608Z,72.50
2019-02-27T17:18:00.133Z,77.90
2019-02-27T17:20:29.463Z,66.97
2019-02-27T17:22:58.166Z,70.00
2019-02-27T17:25:29.980Z,70.30
2019-02-27T17:27:57.146Z,63.07
2019-02-27T17:30:37.688Z,63.07
2019-02-27T17:33:05.409Z,60.80
2019-02-27T17:35:34.132Z,70.03
2019-02-27T17:38:03.159Z,62.23
2019-02-27T17:40:36.665Z,63.10
2019-02-27T17:43:02.184Z,58.23
2019-02-27T17:45:31.026Z,60.50
2019-02-27T17:47:59.718Z,55.03
2019-02-27T17:50:31.465Z,55.17
2019-02-27T17:52:58.646Z,60.60
2019-02-27T17:55:27.372Z,61.17
2019-02-27T17:57:58.597Z,63.30
2019-02-27T18:00:37.731Z,62.77
2019-02-27T18:03:06.432Z,56.33
2019-02-27T18:05:35.119Z,63.87
2019-02-27T18:08:03.946Z,58.33
2019-02-27T18:10:37.169Z,62.60
2019-02-27T18:13:03.082Z,57.40
2019-02-27T18:15:31.836Z,64.20
2019-02-27T18:18:00.455Z,61.10
2019-02-27T18:20:29.064Z,59.23
2019-02-27T18:22:57.718Z,57.47
2019-02-27T18:25:26.402Z,57.20
2019-02-27T18:27:58.834Z,67.87
2019-02-27T18:30:25.710Z,72.20
2019-02-27T18:32:54.325Z,80.03
2019-02-27T18:35:23.028Z,86.40
2019-02-27T18:37:54.349Z,85.47
2019-02-27T18:40:22.137Z,89.43
2019-02-27T18:42:55.046Z,71.70
2019-02-27T18:45:28.675Z,69.83
2019-02-27T18:47:58.638Z,74.30
2019-02-27T18:50:27.553Z,65.30
2019-02-27T18:52:56.129Z,68.80
2019-02-27T18:55:29.555Z,75.47
2019-02-27T18:57:54.785Z,72.47
2019-02-27T19:00:28.226Z,66.40
2019-02-27T19:03:10.307Z,63.53
2019-02-27T19:05:41.814Z,64.73
2019-02-27T19:08:09.512Z,57.20
2019-02-27T19:10:41.370Z,58.23
2019-02-27T19:13:08.652Z,59.50
2019-02-27T19:15:37.276Z,61.30
2019-02-27T19:18:06.528Z,65.37
2019-02-27T19:20:38.655Z,61.93
2019-02-27T19:23:08.794Z,72.90
2019-02-27T19:25:38.421Z,58.63
2019-02-27T19:28:08.078Z,66.77
2019-02-27T19:30:38.681Z,65.93
2019-02-27T19:33:07.103Z,59.00
2019-02-27T19:35:35.844Z,60.97
2019-02-27T19:38:04.793Z,61.27
2019-02-27T19:40:33.477Z,64.90
2019-02-27T19:43:04.301Z,61.00
2019-02-27T19:45:35.906Z,66.93
2019-02-27T19:48:03.184Z,65.17
2019-02-27T19:50:31.901Z,61.27
2019-02-27T19:53:05.241Z,69.43
2019-02-27T19:55:30.951Z,69.87
2019-02-27T19:57:59.807Z,64.70
2019-02-27T20:00:33.751Z,72.27
2019-02-27T20:03:01.476Z,74.57
2019-02-27T20:05:30.471Z,66.03
2019-02-27T20:07:59.187Z,63.50
2019-02-27T20:10:30.985Z,66.80
2019-02-27T20:12:58.191Z,76.37
2019-02-27T20:15:27.179Z,73.70
2019-02-27T20:17:55.875Z,77.80
2019-02-27T20:20:24.883Z,81.50
2019-02-27T20:22:54.816Z,84.17
2019-02-27T20:25:28.786Z,74.37
2019-02-27T20:27:58.716Z,72.67
2019-02-27T20:30:27.605Z,70.87
2019-02-27T20:32:56.303Z,65.73
2019-02-27T20:35:25.085Z,61.23
2019-02-27T20:37:53.837Z,60.70
2019-02-27T20:40:22.471Z,65.33
2019-02-27T20:42:54.951Z,74.00
2019-02-27T20:45:22.794Z,64.87
2019-02-27T20:47:57.778Z,67.87
2019-02-27T20:50:37.835Z,62.67
2019-02-27T20:53:08.061Z,63.47
2019-02-27T20:55:36.605Z,72.30
2019-02-27T20:58:05.293Z,77.20
2019-02-27T21:00:36.573Z,89.03
2019-02-27T21:03:04.529Z,82.27
2019-02-27T21:05:33.075Z,72.13
2019-02-27T21:08:02.501Z,67.50
2019-02-27T21:10:32.813Z,67.60
2019-02-27T21:13:01.423Z,64.73
2019-02-27T21:15:32.612Z,65.00
2019-02-27T21:18:00.513Z,68.40
2019-02-27T21:20:29.056Z,64.13
2019-02-27T21:22:59.989Z,65.53
2019-02-27T21:25:27.828Z,68.03
2019-02-27T21:27:56.438Z,64.87
2019-02-27T21:30:25.850Z,65.53
2019-02-27T21:32:54.464Z,62.50
2019-02-27T21:35:23.174Z,62.53
2019-02-27T21:37:51.897Z,59.67
2019-02-27T21:40:20.585Z,53.60
2019-02-27T21:42:50.719Z,54.13
2019-02-27T21:45:23.366Z,53.30
2019-02-27T21:47:52.919Z,52.10
2019-02-27T21:50:25.207Z,57.70
2019-02-27T21:52:54.738Z,54.20
2019-02-27T21:55:24.395Z,57.43
2019-02-27T21:57:53.113Z,57.00
2019-02-27T22:00:26.173Z,59.57
2019-02-27T22:03:03.925Z,60.30
2019-02-27T22:05:28.801Z,54.90
2019-02-27T22:07:57.367Z,61.33
2019-02-27T22:10:26.049Z,64.27
2019-02-27T22:12:54.606Z,60.00
2019-02-27T22:15:25.522Z,61.57
2019-02-27T22:17:54.127Z,67.70
2019-02-27T22:20:25.989Z,59.87
2019-02-27T22:22:53.169Z,54.57
2019-02-27T22:25:21.706Z,53.03
2019-02-27T22:27:50.384Z,53.83
2019-02-27T22:30:22.456Z,58.00
2019-02-27T22:32:51.012Z,64.30
2019-02-27T22:35:19.617Z,60.10
2019-02-27T22:37:51.044Z,70.07
2019-02-27T22:40:22.386Z,58.20
2019-02-27T22:42:50.923Z,64.07
2019-02-27T22:45:20.240Z,57.97
2019-02-27T22:47:49.829Z,58.37
2019-02-27T22:50:21.849Z,51.33
2019-02-27T22:52:54.176Z,55.13
2019-02-27T22:55:20.812Z,57.17
2019-02-27T22:57:49.360Z,58.57
2019-02-27T23:00:56.542Z,56.70
2019-02-27T23:03:39.892Z,56.17
2019-02-27T23:06:12.241Z,58.63
2019-02-27T23:08:40.613Z,53.77
2019-02-27T23:11:09.422Z,56.10
2019-02-27T23:13:38.196Z,54.57
2019-02-27T23:16:06.805Z,52.03
2019-02-27T23:18:37.377Z,58.70
2019-02-27T23:21:05.713Z,52.73
2019-02-27T23:23:36.740Z,53.83
2019-02-27T23:26:04.507Z,57.87
2019-02-27T23:28:34.812Z,58.33
2019-02-27T23:31:03.499Z,59.73
2019-02-27T23:33:35.783Z,52.87
2019-02-27T23:36:02.401Z,53.43
2019-02-27T23:38:30.942Z,51.77
2019-02-27T23:40:59.486Z,53.90
2019-02-27T23:43:28.126Z,57.57
2019-02-27T23:45:56.805Z,52.80
2019-02-27T23:48:25.273Z,56.13
2019-02-27T23:50:53.845Z,51.60
2019-02-27T23:53:24.426Z,58.27
2019-02-27T23:55:52.802Z,53.47
2019-02-27T23:58:21.341Z,51.87
